.
WxDataArchive / Data Records for 2010-03-12
2010-03-11 March 2010 2010-03-13

Data Records for Friday, 12 March 2010

Time	Temp	Chill	HIndex	Humid	Dewpt	 Wind 	HiWind	WindDir	Rain 	Barom 
-----	----	-----	------	-----	-----	------	------	-------	-----	----- 
00:00	50.2	50.2	50.2	95	48.8	0	1	135	0.00	29.655 
00:05	50.1	50.1	50.1	95	48.7	0	0	---	0.00	29.655 
00:10	50.1	50.1	50.1	95	48.7	0	0	---	0.00	29.655 
00:15	49.8	49.8	49.8	95	48.4	0	0	---	0.00	29.657 
00:20	49.5	49.5	49.5	95	48.1	0	0	---	0.00	29.657 
00:25	49.1	49.1	49.1	95	47.7	0	0	---	0.00	29.657 
00:30	48.8	48.8	48.8	95	47.4	0	0	---	0.00	29.662 
00:35	48.3	48.3	48.3	95	46.9	0	0	---	0.00	29.662 
00:40	47.7	47.7	47.7	95	46.3	0	0	---	0.00	29.662 
00:45	47.3	47.3	47.3	95	45.9	0	0	---	0.00	29.664 
00:50	47.0	47.0	47.0	95	45.6	0	0	---	0.00	29.664 
00:55	46.7	46.7	46.7	95	45.3	0	0	---	0.00	29.664 
01:00	46.4	46.4	46.4	95	45.0	0	0	---	0.00	29.665 
01:05	46.1	46.1	46.1	95	44.7	0	0	---	0.00	29.665 
01:10	45.8	45.8	45.8	95	44.4	0	0	---	0.00	29.665 
01:15	45.7	45.7	45.7	95	44.4	0	0	---	0.00	29.660 
01:20	45.5	45.5	45.5	96	44.4	0	0	---	0.00	29.660 
01:25	45.4	45.4	45.4	95	44.1	0	0	---	0.00	29.660 
01:30	45.2	45.2	45.2	96	44.1	0	0	---	0.00	29.668 
01:35	45.1	45.1	45.1	96	44.0	0	0	---	0.00	29.668 
01:40	45.1	45.1	45.1	96	44.0	0	0	---	0.00	29.668 
01:45	44.9	44.9	44.9	96	43.8	0	0	---	0.00	29.669 
01:50	44.8	44.8	44.8	96	43.7	0	0	---	0.00	29.669 
01:55	44.8	44.8	44.8	96	43.7	0	0	---	0.00	29.669 
02:00	44.6	44.6	44.6	96	43.5	0	0	---	0.00	29.670 
02:05	44.6	44.6	44.6	96	43.5	0	0	---	0.00	29.670 
02:10	44.6	44.6	44.6	96	43.5	0	0	---	0.00	29.670 
02:15	44.6	44.6	44.6	96	43.5	0	0	---	0.00	29.671 
02:20	44.6	44.6	44.6	96	43.5	0	0	---	0.00	29.671 
02:25	44.5	44.5	44.5	96	43.4	0	0	---	0.00	29.671 
02:30	44.6	44.6	44.6	96	43.5	0	0	---	0.00	29.671 
02:35	44.8	44.8	44.8	96	43.7	0	0	---	0.00	29.671 
02:40	44.8	44.8	44.8	96	43.7	0	0	---	0.00	29.671 
02:45	44.6	44.6	44.6	96	43.5	0	0	---	0.00	29.669 
02:50	44.5	44.5	44.5	96	43.4	0	0	---	0.00	29.669 
02:55	44.5	44.5	44.5	96	43.4	0	0	---	0.00	29.669 
03:00	44.8	44.8	44.8	96	43.7	0	1	135	0.00	29.659 
03:05	45.1	45.1	45.1	96	44.0	0	0	---	0.00	29.659 
03:10	45.1	45.1	45.1	96	44.0	0	0	---	0.00	29.659 
03:15	45.1	45.1	45.1	96	44.0	0	0	---	0.00	29.664 
03:20	44.8	44.8	44.8	96	43.7	0	0	---	0.00	29.664 
03:25	44.9	44.9	44.9	96	43.8	0	1	135	0.00	29.664 
03:30	44.9	44.9	44.9	96	43.8	0	0	---	0.00	29.659 
03:35	44.6	44.6	44.6	96	43.5	0	0	---	0.00	29.659 
03:40	44.3	44.3	44.3	96	43.2	0	0	---	0.00	29.659 
03:45	44.2	44.2	44.2	96	43.1	0	0	---	0.00	29.657 
03:50	43.9	43.9	43.9	96	42.8	0	0	---	0.00	29.657 
03:55	43.6	43.6	43.6	96	42.5	0	0	---	0.00	29.657 
04:00	43.2	43.2	43.2	96	42.1	0	0	---	0.00	29.660 
04:05	42.9	42.9	42.9	96	41.8	0	0	---	0.00	29.660 
04:10	42.6	42.6	42.6	96	41.5	0	0	---	0.00	29.660 
04:15	42.3	42.3	42.3	96	41.2	0	0	---	0.00	29.668 
04:20	42.2	42.2	42.2	96	41.1	0	0	---	0.00	29.668 
04:25	41.9	41.9	41.9	96	40.8	0	0	---	0.00	29.668 
04:30	41.8	41.8	41.8	96	40.7	0	0	---	0.00	29.673 
04:35	41.6	41.6	41.6	96	40.5	0	0	---	0.00	29.673 
04:40	41.3	41.3	41.3	96	40.2	0	0	---	0.00	29.673 
04:45	41.2	41.2	41.2	96	40.1	0	0	---	0.00	29.673 
04:50	41.1	41.1	41.1	96	40.0	0	0	---	0.00	29.673 
04:55	40.9	40.9	40.9	96	39.8	0	0	---	0.00	29.673 
05:00	40.8	40.8	40.8	96	39.7	0	0	---	0.00	29.676 
05:05	40.6	40.6	40.6	96	39.5	0	0	---	0.00	29.676 
05:10	40.6	40.6	40.6	96	39.5	0	0	---	0.00	29.676 
05:15	40.5	40.5	40.5	96	39.5	0	0	---	0.00	29.678 
05:20	40.5	40.5	40.5	96	39.5	0	0	---	0.00	29.678 
05:25	40.8	40.8	40.8	96	39.7	0	0	---	0.00	29.678 
05:30	41.1	41.1	41.1	96	40.0	0	0	---	0.00	29.685 
05:35	41.5	41.5	41.5	97	40.7	0	0	---	0.00	29.685 
05:40	41.8	41.8	41.8	97	41.0	0	0	---	0.00	29.685 
05:45	41.9	41.9	41.9	97	41.1	0	0	---	0.00	29.680 
05:50	42.2	42.2	42.2	97	41.4	0	0	---	0.00	29.680 
05:55	42.6	42.6	42.6	97	41.8	0	1	135	0.00	29.680 
06:00	43.1	43.1	43.1	97	42.3	0	1	135	0.00	29.682 
06:05	43.5	43.5	43.5	97	42.7	0	0	---	0.00	29.682 
06:10	43.8	43.8	43.8	97	43.0	0	0	---	0.00	29.682 
06:15	43.8	43.8	43.8	97	43.0	0	0	---	0.00	29.682 
06:20	43.9	43.9	43.9	97	43.1	0	0	---	0.00	29.682 
06:25	44.1	44.1	44.1	97	43.3	0	0	---	0.00	29.682 
06:30	44.3	44.3	44.3	97	43.5	0	0	---	0.00	29.691 
06:35	44.6	44.6	44.6	97	43.8	0	1	135	0.00	29.691 
06:40	44.8	44.8	44.8	97	44.0	0	2	135	0.00	29.691 
06:45	44.9	44.9	44.9	97	44.1	0	0	---	0.00	29.693 
06:50	45.2	45.2	45.2	97	44.4	0	2	135	0.00	29.693 
06:55	45.2	45.2	45.2	97	44.4	0	1	135	0.00	29.693 
07:00	45.4	45.4	45.4	97	44.6	1	2	135	0.00	29.697 
07:05	45.5	45.5	45.5	97	44.7	0	1	135	0.00	29.697 
07:10	45.7	45.7	45.7	97	44.9	0	2	135	0.00	29.697 
07:15	45.8	45.8	45.8	97	45.0	1	3	135	0.00	29.704 
07:20	45.8	45.8	45.8	97	45.0	1	3	135	0.00	29.704 
07:25	46.0	46.0	46.0	97	45.2	1	2	135	0.00	29.704 
07:30	46.0	46.0	46.0	97	45.2	0	3	135	0.00	29.688 
07:35	46.1	46.1	46.1	97	45.3	0	3	135	0.00	29.688 
07:40	46.2	46.2	46.2	97	45.4	0	3	135	0.00	29.688 
07:45	46.4	46.4	46.4	97	45.6	0	2	135	0.00	29.679 
07:50	46.7	46.7	46.7	97	45.9	0	3	135	0.00	29.679 
07:55	46.8	46.8	46.8	97	46.0	0	2	135	0.00	29.679 
08:00	47.0	47.0	47.0	97	46.2	0	2	135	0.00	29.700 
08:05	47.0	47.0	47.0	97	46.2	0	1	135	0.00	29.700 
08:10	47.1	47.1	47.1	97	46.3	0	1	135	0.00	29.700 
08:15	47.3	47.3	47.3	97	46.5	1	3	135	0.00	29.689 
08:20	47.4	47.4	47.4	97	46.6	1	4	135	0.00	29.689 
08:25	47.4	47.4	47.4	97	46.6	1	3	112	0.00	29.689 
08:30	47.6	47.6	47.6	97	46.8	0	2	112	0.00	29.692 
08:35	47.6	47.6	47.6	97	46.8	1	4	112	0.00	29.692 
08:40	47.7	47.7	47.7	97	46.9	1	3	112	0.00	29.692 
08:45	47.9	47.9	47.9	97	47.1	1	3	112	0.00	29.689 
08:50	47.9	47.9	47.9	97	47.1	1	4	90	0.00	29.689 
08:55	47.9	47.9	47.9	97	47.1	1	3	90	0.00	29.689 
09:00	48.0	48.0	48.0	97	47.2	1	3	90	0.00	29.688 
09:05	48.2	48.2	48.2	97	47.4	1	3	90	0.00	29.688 
09:10	48.3	48.3	48.3	97	47.5	0	2	90	0.00	29.688 
09:15	48.5	48.5	48.5	97	47.7	0	2	90	0.00	29.697 
09:20	48.6	48.6	48.6	97	47.8	0	1	90	0.00	29.697 
09:25	48.8	48.8	48.8	97	48.0	0	0	---	0.00	29.697 
09:30	48.9	48.9	48.9	97	48.1	0	0	---	0.00	29.690 
09:35	49.1	49.1	49.1	98	48.6	0	1	90	0.00	29.690 
09:40	49.2	49.2	49.2	98	48.7	1	3	90	0.00	29.690 
09:45	49.4	49.4	49.4	98	48.9	1	2	90	0.00	29.690 
09:50	49.5	49.5	49.5	98	49.0	1	3	90	0.00	29.690 
09:55	49.6	49.6	49.6	98	49.1	0	2	135	0.00	29.690 
10:00	49.8	49.8	49.8	98	49.3	0	2	135	0.00	29.688 
10:05	49.9	49.9	49.9	98	49.4	1	2	135	0.00	29.688 
10:10	50.1	50.1	50.1	98	49.6	1	4	112	0.00	29.688 
10:15	50.2	50.2	50.2	98	49.7	1	3	112	0.00	29.700 
10:20	50.4	50.4	50.4	98	49.9	1	3	112	0.00	29.700 
10:25	50.5	50.5	50.5	98	50.0	0	2	112	0.00	29.700 
10:30	50.8	50.8	50.8	98	50.3	1	3	112	0.00	29.710 
10:35	51.0	51.0	51.0	98	50.5	1	4	112	0.00	29.710 
10:40	51.1	51.1	51.1	98	50.6	1	3	90	0.00	29.710 
10:45	51.3	51.3	51.3	98	50.8	1	2	90	0.00	29.706 
10:50	51.3	51.3	51.3	98	50.8	1	3	90	0.00	29.706 
10:55	51.4	51.4	51.4	98	50.9	0	2	90	0.00	29.706 
11:00	51.4	51.4	51.4	98	50.9	1	3	90	0.00	29.705 
11:05	51.6	51.6	51.6	98	51.1	1	3	90	0.00	29.705 
11:10	51.6	51.6	51.6	98	51.1	2	4	90	0.00	29.705 
11:15	51.7	51.7	51.7	98	51.2	1	3	90	0.00	29.705 
11:20	51.9	51.9	51.9	98	51.4	1	3	90	0.00	29.705 
11:25	51.9	51.9	51.9	98	51.4	1	3	90	0.00	29.705 
11:30	52.0	52.0	52.0	98	51.5	0	2	90	0.00	29.715 
11:35	52.2	52.2	52.2	98	51.7	0	2	90	0.00	29.715 
11:40	52.2	52.2	52.2	98	51.7	0	2	90	0.00	29.715 
11:45	52.2	52.2	52.2	98	51.7	0	2	90	0.00	29.710 
11:50	52.2	52.2	52.2	98	51.7	1	2	90	0.00	29.710 
11:55	52.2	52.2	52.2	98	51.7	1	3	90	0.00	29.710 
12:00	52.3	52.3	52.3	98	51.8	1	2	90	0.00	29.710 
12:05	52.5	52.5	52.5	98	52.0	1	2	90	0.00	29.710 
12:10	52.8	52.8	52.8	98	52.2	0	1	90	0.00	29.710 
12:15	52.9	52.9	52.9	98	52.3	0	2	90	0.00	29.711 
12:20	53.1	53.1	53.1	98	52.5	1	2	90	0.00	29.711 
12:25	53.1	53.1	53.1	98	52.5	1	3	90	0.00	29.711 
12:30	53.3	53.3	53.3	98	52.7	1	4	90	0.00	29.714 
12:35	53.6	53.6	53.6	98	53.0	0	2	90	0.00	29.714 
12:40	53.9	53.9	53.9	98	53.3	1	4	90	0.00	29.714 
12:45	54.1	54.1	54.1	98	53.5	1	4	90	0.00	29.707 
12:50	53.9	53.9	53.9	97	53.1	2	3	90	0.00	29.707 
12:55	53.9	53.9	53.9	97	53.1	2	4	90	0.00	29.707 
13:00	54.1	54.1	54.1	97	53.3	1	4	90	0.00	29.702 
13:05	54.1	54.1	54.1	97	53.3	2	5	112	0.00	29.702 
13:10	54.1	54.1	54.1	97	53.3	1	3	90	0.00	29.702 
13:15	54.1	54.1	54.1	97	53.3	1	4	90	0.00	29.696 
13:20	54.1	54.1	54.1	97	53.3	1	3	90	0.00	29.696 
13:25	54.1	54.1	54.1	97	53.3	2	5	90	0.00	29.696 
13:30	54.1	54.1	54.1	97	53.3	4	7	90	0.00	29.688 
13:35	53.9	53.9	53.9	96	52.8	4	10	90	0.00	29.688 
13:40	53.9	53.9	53.9	96	52.8	2	6	112	0.00	29.688 
13:45	53.9	53.9	53.9	96	52.8	2	7	112	0.00	29.674 
13:50	53.9	53.9	53.9	96	52.8	2	5	90	0.00	29.674 
13:55	53.9	53.9	53.9	96	52.8	2	6	90	0.00	29.674 
14:00	53.9	53.9	53.9	96	52.8	3	6	112	0.00	29.660 
14:05	53.8	53.8	53.8	96	52.7	3	7	90	0.00	29.660 
14:10	53.9	53.9	53.9	96	52.8	2	5	90	0.00	29.660 
14:15	53.9	53.9	53.9	96	52.8	2	4	90	0.00	29.646 
14:20	54.1	54.1	54.1	96	53.0	1	4	90	0.00	29.646 
14:25	54.2	54.2	54.2	96	53.1	1	4	90	0.00	29.646 
14:30	54.4	54.4	54.4	96	53.3	0	1	90	0.00	29.642 
14:35	54.4	54.4	54.4	96	53.3	0	2	90	0.00	29.642 
14:40	54.5	54.5	54.5	96	53.4	0	1	90	0.00	29.642 
14:45	54.7	54.7	54.7	96	53.6	1	3	90	0.00	29.635 
14:50	54.8	54.8	54.8	96	53.7	1	3	90	0.00	29.635 
14:55	55.0	55.0	55.0	96	53.9	0	2	90	0.00	29.635 
15:00	55.0	55.0	55.0	96	53.9	1	4	90	0.00	29.639 
15:05	55.1	55.1	55.1	96	54.0	1	3	90	0.00	29.639 
15:10	55.3	55.3	55.3	96	54.2	1	3	90	0.00	29.639 
15:15	55.3	55.3	55.3	96	54.2	1	4	90	0.00	29.642 
15:20	55.3	55.3	55.3	95	53.9	1	4	90	0.00	29.642 
15:25	55.3	55.3	55.3	95	53.9	1	4	90	0.00	29.642 
15:30	55.4	55.4	55.4	95	54.0	1	4	90	0.00	29.634 
15:35	55.6	55.6	55.6	95	54.2	2	5	90	0.00	29.634 
15:40	55.7	55.7	55.7	94	54.0	1	6	112	0.00	29.634 
15:45	55.9	55.9	55.9	93	53.9	2	4	90	0.00	29.628 
15:50	56.0	56.0	56.0	93	54.0	1	4	90	0.00	29.628 
15:55	56.2	56.2	56.2	93	54.2	0	3	90	0.00	29.628 
16:00	56.3	56.3	56.3	93	54.3	0	2	90	0.00	29.624 
16:05	56.3	56.3	56.3	92	54.0	1	4	45	0.00	29.624 
16:10	56.5	56.5	56.5	92	54.2	1	4	0	0.00	29.624 
16:15	56.3	56.3	56.3	92	54.0	1	6	45	0.00	29.615 
16:20	56.3	56.3	56.3	92	54.0	1	4	112	0.00	29.615 
16:25	56.5	56.5	56.5	92	54.2	1	4	112	0.00	29.615 
16:30	56.5	56.5	56.5	91	53.9	1	4	112	0.00	29.611 
16:35	56.6	56.6	56.6	91	54.0	0	2	112	0.00	29.611 
16:40	56.7	56.7	56.7	91	54.1	1	3	112	0.00	29.611 
16:45	56.7	56.7	56.7	91	54.1	1	5	45	0.00	29.600 
16:50	56.9	56.9	56.9	90	54.0	1	4	68	0.00	29.600 
16:55	56.9	56.9	56.9	90	54.0	0	2	68	0.00	29.600 
17:00	56.9	56.9	56.9	90	54.0	1	3	45	0.00	29.595 
17:05	56.9	56.9	56.9	90	54.0	1	3	68	0.00	29.595 
17:10	56.9	56.9	56.9	90	54.0	1	3	90	0.00	29.595 
17:15	56.9	56.9	56.9	90	54.0	1	4	68	0.00	29.583 
17:20	56.9	56.9	56.9	90	54.0	1	4	0	0.00	29.583 
17:25	56.9	56.9	56.9	90	54.0	2	4	135	0.00	29.583 
17:30	56.9	56.9	56.9	90	54.0	1	4	135	0.00	29.584 
17:35	56.9	56.9	56.9	89	53.7	0	2	22	0.00	29.584 
17:40	57.0	57.0	57.0	89	53.8	1	4	22	0.00	29.584 
17:45	57.0	57.0	57.0	89	53.8	1	4	45	0.00	29.579 
17:50	57.0	57.0	57.0	89	53.8	1	4	45	0.00	29.579 
17:55	57.0	57.0	57.0	90	54.1	1	3	45	0.00	29.579 
18:00	57.2	57.2	57.2	89	54.0	2	5	90	0.00	29.582 
18:05	57.2	57.2	57.2	89	54.0	3	9	90	0.00	29.582 
18:10	57.2	57.2	57.2	89	54.0	3	11	112	0.00	29.582 
18:15	57.2	57.2	57.2	88	53.7	4	9	112	0.00	29.584 
18:20	57.0	57.0	57.0	88	53.5	4	9	112	0.00	29.584 
18:25	56.9	56.9	56.9	88	53.4	4	12	112	0.00	29.584 
18:30	56.6	56.6	56.6	88	53.1	3	9	112	0.00	29.581 
18:35	56.5	56.5	56.5	88	53.0	2	7	112	0.00	29.581 
18:40	56.2	56.2	56.2	89	53.0	3	7	90	0.00	29.581 
18:45	55.9	55.9	55.9	89	52.7	3	6	112	0.00	29.588 
18:50	55.6	55.6	55.6	89	52.4	3	12	68	0.00	29.588 
18:55	55.3	55.3	55.3	89	52.1	3	11	112	0.00	29.588 
19:00	55.0	55.0	55.0	89	51.8	3	5	112	0.00	29.583 
19:05	54.7	54.7	54.7	90	51.8	4	11	112	0.00	29.583 
19:10	54.2	54.2	54.2	90	51.3	4	15	112	0.00	29.583 
19:15	53.9	53.9	53.9	90	51.0	3	11	135	0.00	29.579 
19:20	53.6	53.6	53.6	90	50.7	4	11	112	0.00	29.579 
19:25	53.5	53.5	53.5	91	50.9	4	13	90	0.00	29.579 
19:30	53.2	53.2	53.2	91	50.6	5	11	112	0.00	29.579 
19:35	53.1	53.1	53.1	91	50.5	4	11	112	0.00	29.579 
19:40	53.1	53.1	53.1	92	50.8	3	7	22	0.00	29.579 
19:45	53.1	53.1	53.1	92	50.8	4	14	90	0.00	29.571 
19:50	53.1	53.1	53.1	92	50.8	3	7	112	0.00	29.571 
19:55	53.1	53.1	53.1	92	50.8	3	10	112	0.00	29.571 
20:00	53.1	53.1	53.1	92	50.8	3	11	90	0.00	29.559 
20:05	53.1	53.1	53.1	92	50.8	3	12	68	0.00	29.559 
20:10	53.1	53.1	53.1	92	50.8	3	11	22	0.00	29.559 
20:15	53.2	53.2	53.2	92	50.9	4	13	90	0.00	29.564 
20:20	53.2	53.2	53.2	91	50.6	3	9	90	0.00	29.564 
20:25	53.2	53.2	53.2	91	50.6	3	8	45	0.00	29.564 
20:30	53.2	53.2	53.2	91	50.6	4	12	112	0.00	29.551 
20:35	53.2	53.2	53.2	91	50.6	4	12	45	0.00	29.551 
20:40	53.2	53.2	53.2	91	50.6	4	12	90	0.00	29.551 
20:45	53.1	53.1	53.1	91	50.5	3	10	68	0.00	29.532 
20:50	53.1	53.1	53.1	90	50.2	3	14	45	0.00	29.532 
20:55	53.1	53.1	53.1	90	50.2	4	13	22	0.00	29.532 
21:00	53.2	53.2	53.2	90	50.3	4	10	112	0.00	29.517 
21:05	53.2	53.2	53.2	90	50.3	3	13	112	0.00	29.517 
21:10	53.3	53.3	53.3	90	50.4	4	13	90	0.00	29.517 
21:15	53.3	53.3	53.3	89	50.1	3	9	112	0.00	29.504 
21:20	53.3	53.3	53.3	89	50.1	3	12	45	0.00	29.504 
21:25	53.3	53.3	53.3	89	50.1	4	10	22	0.00	29.504 
21:30	53.3	53.3	53.3	89	50.1	4	12	135	0.00	29.495 
21:35	53.3	53.3	53.3	89	50.1	3	11	315	0.00	29.495 
21:40	53.3	53.3	53.3	89	50.1	3	7	45	0.00	29.495 
21:45	53.2	53.2	53.2	88	49.7	5	18	112	0.00	29.499 
21:50	53.2	53.2	53.2	88	49.7	5	16	90	0.00	29.499 
21:55	53.1	53.1	53.1	88	49.6	5	15	112	0.00	29.499 
22:00	52.9	52.9	52.9	88	49.4	4	13	112	0.00	29.498 
22:05	52.8	52.8	52.8	89	49.6	3	9	90	0.00	29.498 
22:10	52.6	52.6	52.6	89	49.4	5	12	90	0.00	29.498 
22:15	52.5	52.5	52.5	89	49.4	4	15	90	0.00	29.493 
22:20	52.3	52.3	52.3	89	49.2	4	10	112	0.00	29.493 
22:25	52.2	52.2	52.2	89	49.1	4	12	112	0.00	29.493 
22:30	52.2	52.2	52.2	89	49.1	4	10	112	0.00	29.484 
22:35	52.0	52.0	52.0	89	48.9	6	14	112	0.00	29.484 
22:40	52.0	52.0	52.0	89	48.9	4	11	112	0.00	29.484 
22:45	52.0	52.0	52.0	88	48.6	3	15	90	0.00	29.478 
22:50	52.0	52.0	52.0	88	48.6	5	15	112	0.00	29.478 
22:55	52.0	52.0	52.0	88	48.6	6	17	90	0.00	29.478 
23:00	51.9	51.9	51.9	88	48.5	4	11	90	0.01	29.484 
23:05	51.6	51.6	51.6	89	48.5	7	14	90	0.02	29.484 
23:10	51.3	51.3	51.3	90	48.5	3	6	112	0.02	29.484 
23:15	51.1	51.1	51.1	91	48.6	6	13	112	0.01	29.498 
23:20	51.0	51.0	51.0	91	48.5	5	12	90	0.02	29.498 
23:25	50.7	50.7	50.7	92	48.5	4	12	112	0.02	29.498 
23:30	50.5	50.5	50.5	92	48.3	4	12	90	0.02	29.500 
23:35	50.4	50.4	50.4	92	48.2	3	11	112	0.02	29.500 
23:40	50.4	50.4	50.4	93	48.5	3	6	90	0.02	29.500 
23:45	50.4	50.4	50.4	93	48.5	4	6	112	0.01	29.497 
23:50	50.2	50.2	50.2	94	48.5	3	6	90	0.02	29.497 
23:55	50.2	50.2	50.2	94	48.5	2	5	90	0.01	29.497 

CoCoRaHS
IN-AL-39
A2 Web Hosting
Creative Commons License
GoDaddy
search engine by freefind advanced

loaded 2018-11-22 06:22:14 • last modified 2010-11-18 10:43:29
Privacy PolicyDisclaimer
• wx.awcolley.com is powered by PmWiki v.2002016 •
• all content (unless otherwise noted) © 2018 A W Colley